sensor_id;sensor_type;location;lat;lon;timestamp;pressure;altitude;pressure_sealevel;temperature;humidity
16331;BME280;8275;48.206;16.340;2023-04-08T00:01:02;99276.69;;;12.54;42.39
16331;BME280;8275;48.206;16.340;2023-04-08T00:03:30;99283.28;;;12.53;42.74
16331;BME280;8275;48.206;16.340;2023-04-08T00:05:59;99277.50;;;12.50;42.77
16331;BME280;8275;48.206;16.340;2023-04-08T00:08:29;99285.44;;;12.46;42.94
16331;BME280;8275;48.206;16.340;2023-04-08T00:10:57;99285.16;;;12.38;43.54
16331;BME280;8275;48.206;16.340;2023-04-08T00:13:26;99280.16;;;12.25;43.69
16331;BME280;8275;48.206;16.340;2023-04-08T00:15:56;99288.28;;;12.10;44.05
16331;BME280;8275;48.206;16.340;2023-04-08T00:18:24;99283.81;;;11.98;44.19
16331;BME280;8275;48.206;16.340;2023-04-08T00:20:53;99283.75;;;11.88;44.34
16331;BME280;8275;48.206;16.340;2023-04-08T00:23:23;99282.34;;;11.81;44.15
16331;BME280;8275;48.206;16.340;2023-04-08T00:25:51;99283.91;;;11.72;44.11
16331;BME280;8275;48.206;16.340;2023-04-08T00:28:20;99285.19;;;11.64;44.52
16331;BME280;8275;48.206;16.340;2023-04-08T00:30:48;99287.91;;;11.59;44.62
16331;BME280;8275;48.206;16.340;2023-04-08T00:33:18;99296.91;;;11.55;45.40
16331;BME280;8275;48.206;16.340;2023-04-08T00:35:47;99291.94;;;11.52;45.16
16331;BME280;8275;48.206;16.340;2023-04-08T00:38:17;99300.41;;;11.45;45.62
16331;BME280;8275;48.206;16.340;2023-04-08T00:40:45;99304.44;;;11.38;45.66
16331;BME280;8275;48.206;16.340;2023-04-08T00:43:13;99300.00;;;11.32;45.37
16331;BME280;8275;48.206;16.340;2023-04-08T00:45:42;99302.41;;;11.23;45.40
16331;BME280;8275;48.206;16.340;2023-04-08T00:48:11;99303.69;;;11.15;45.63
16331;BME280;8275;48.206;16.340;2023-04-08T00:50:42;99315.09;;;11.07;45.98
16331;BME280;8275;48.206;16.340;2023-04-08T00:53:11;99303.78;;;10.99;45.55
16331;BME280;8275;48.206;16.340;2023-04-08T00:55:40;99307.00;;;10.91;46.17
16331;BME280;8275;48.206;16.340;2023-04-08T00:58:08;99312.69;;;10.84;46.10
16331;BME280;8275;48.206;16.340;2023-04-08T01:00:43;99309.31;;;10.77;46.41
16331;BME280;8275;48.206;16.340;2023-04-08T01:03:17;99315.31;;;10.74;46.50
16331;BME280;8275;48.206;16.340;2023-04-08T01:05:59;99305.09;;;10.70;46.80
16331;BME280;8275;48.206;16.340;2023-04-08T01:08:32;99305.63;;;10.67;46.79
16331;BME280;8275;48.206;16.340;2023-04-08T01:11:10;99310.78;;;10.63;47.25
16331;BME280;8275;48.206;16.340;2023-04-08T01:13:41;99305.53;;;10.62;47.26
16331;BME280;8275;48.206;16.340;2023-04-08T01:16:14;99308.56;;;10.60;47.18
16331;BME280;8275;48.206;16.340;2023-04-08T01:18:44;99309.63;;;10.59;47.43
16331;BME280;8275;48.206;16.340;2023-04-08T01:21:15;99308.25;;;10.56;47.43
16331;BME280;8275;48.206;16.340;2023-04-08T01:23:56;99310.66;;;10.53;47.71
16331;BME280;8275;48.206;16.340;2023-04-08T01:26:28;99303.78;;;10.50;47.53
16331;BME280;8275;48.206;16.340;2023-04-08T01:29:00;99307.53;;;10.44;47.63
16331;BME280;8275;48.206;16.340;2023-04-08T01:31:29;99301.72;;;10.41;47.72
16331;BME280;8275;48.206;16.340;2023-04-08T01:33:59;99314.00;;;10.38;47.99
16331;BME280;8275;48.206;16.340;2023-04-08T01:36:30;99304.66;;;10.34;48.08
16331;BME280;8275;48.206;16.340;2023-04-08T01:39:00;99306.25;;;10.30;48.23
16331;BME280;8275;48.206;16.340;2023-04-08T01:41:33;99314.41;;;10.25;48.14
16331;BME280;8275;48.206;16.340;2023-04-08T01:44:03;99313.00;;;10.23;48.34
16331;BME280;8275;48.206;16.340;2023-04-08T01:46:32;99320.63;;;10.21;48.41
16331;BME280;8275;48.206;16.340;2023-04-08T01:49:02;99319.75;;;10.15;48.56
16331;BME280;8275;48.206;16.340;2023-04-08T01:51:32;99306.75;;;10.11;48.64
16331;BME280;8275;48.206;16.340;2023-04-08T01:54:03;99316.34;;;10.08;48.77
16331;BME280;8275;48.206;16.340;2023-04-08T01:56:36;99318.72;;;10.05;48.54
16331;BME280;8275;48.206;16.340;2023-04-08T01:59:10;99312.09;;;10.01;48.71
16331;BME280;8275;48.206;16.340;2023-04-08T02:01:40;99313.94;;;9.95;48.68
16331;BME280;8275;48.206;16.340;2023-04-08T02:04:12;99317.75;;;9.94;48.95
16331;BME280;8275;48.206;16.340;2023-04-08T02:06:41;99314.44;;;9.92;48.74
16331;BME280;8275;48.206;16.340;2023-04-08T02:09:09;99317.69;;;9.89;49.17
16331;BME280;8275;48.206;16.340;2023-04-08T02:11:39;99314.94;;;9.89;49.32
16331;BME280;8275;48.206;16.340;2023-04-08T02:14:07;99315.22;;;9.87;49.37
16331;BME280;8275;48.206;16.340;2023-04-08T02:16:41;99324.22;;;9.88;49.28
16331;BME280;8275;48.206;16.340;2023-04-08T02:19:23;99322.56;;;9.87;49.54
16331;BME280;8275;48.206;16.340;2023-04-08T02:21:57;99325.31;;;9.87;49.41
16331;BME280;8275;48.206;16.340;2023-04-08T02:24:28;99328.28;;;9.85;49.67
16331;BME280;8275;48.206;16.340;2023-04-08T02:26:59;99331.28;;;9.84;49.41
16331;BME280;8275;48.206;16.340;2023-04-08T02:29:30;99332.88;;;9.80;49.51
16331;BME280;8275;48.206;16.340;2023-04-08T02:32:01;99327.63;;;9.78;49.52
16331;BME280;8275;48.206;16.340;2023-04-08T02:34:31;99327.31;;;9.75;49.61
16331;BME280;8275;48.206;16.340;2023-04-08T02:37:02;99332.47;;;9.71;49.99
16331;BME280;8275;48.206;16.340;2023-04-08T02:39:31;99331.84;;;9.69;49.81
16331;BME280;8275;48.206;16.340;2023-04-08T02:42:01;99331.28;;;9.67;50.07
16331;BME280;8275;48.206;16.340;2023-04-08T02:44:29;99333.44;;;9.65;50.33
16331;BME280;8275;48.206;16.340;2023-04-08T02:46:57;99338.34;;;9.63;50.31
16331;BME280;8275;48.206;16.340;2023-04-08T02:49:26;99334.44;;;9.59;50.17
16331;BME280;8275;48.206;16.340;2023-04-08T02:51:54;99335.75;;;9.57;50.40
16331;BME280;8275;48.206;16.340;2023-04-08T02:54:23;99332.09;;;9.51;50.24
16331;BME280;8275;48.206;16.340;2023-04-08T02:56:51;99334.75;;;9.46;50.23
16331;BME280;8275;48.206;16.340;2023-04-08T02:59:21;99329.22;;;9.41;50.77
16331;BME280;8275;48.206;16.340;2023-04-08T03:01:49;99341.69;;;9.37;50.75
16331;BME280;8275;48.206;16.340;2023-04-08T03:04:18;99338.66;;;9.34;50.82
16331;BME280;8275;48.206;16.340;2023-04-08T03:06:46;99342.97;;;9.30;50.72
16331;BME280;8275;48.206;16.340;2023-04-08T03:09:14;99348.91;;;9.27;50.95
16331;BME280;8275;48.206;16.340;2023-04-08T03:11:43;99352.13;;;9.24;51.00
16331;BME280;8275;48.206;16.340;2023-04-08T03:14:11;99350.97;;;9.19;50.92
16331;BME280;8275;48.206;16.340;2023-04-08T03:16:41;99346.22;;;9.15;50.75
16331;BME280;8275;48.206;16.340;2023-04-08T03:19:09;99344.81;;;9.12;51.03
16331;BME280;8275;48.206;16.340;2023-04-08T03:21:38;99345.53;;;9.08;51.07
16331;BME280;8275;48.206;16.340;2023-04-08T03:24:06;99353.41;;;9.04;51.27
16331;BME280;8275;48.206;16.340;2023-04-08T03:26:35;99353.06;;;9.01;51.25
16331;BME280;8275;48.206;16.340;2023-04-08T03:29:03;99350.59;;;8.99;51.55
16331;BME280;8275;48.206;16.340;2023-04-08T03:31:33;99345.59;;;8.96;51.47
16331;BME280;8275;48.206;16.340;2023-04-08T03:34:03;99350.47;;;8.94;51.39
16331;BME280;8275;48.206;16.340;2023-04-08T03:36:31;99354.53;;;8.92;51.35
16331;BME280;8275;48.206;16.340;2023-04-08T03:39:00;99350.16;;;8.91;51.38
16331;BME280;8275;48.206;16.340;2023-04-08T03:41:29;99347.91;;;8.88;51.51
16331;BME280;8275;48.206;16.340;2023-04-08T03:43:58;99352.53;;;8.87;51.50
16331;BME280;8275;48.206;16.340;2023-04-08T03:46:26;99353.84;;;8.85;51.70
16331;BME280;8275;48.206;16.340;2023-04-08T03:48:55;99357.66;;;8.84;51.67
16331;BME280;8275;48.206;16.340;2023-04-08T03:51:24;99366.09;;;8.82;51.82
16331;BME280;8275;48.206;16.340;2023-04-08T03:53:53;99363.59;;;8.81;51.81
16331;BME280;8275;48.206;16.340;2023-04-08T03:56:21;99361.94;;;8.80;51.82
16331;BME280;8275;48.206;16.340;2023-04-08T03:58:51;99367.38;;;8.80;51.81
16331;BME280;8275;48.206;16.340;2023-04-08T04:01:19;99370.13;;;8.80;51.79
16331;BME280;8275;48.206;16.340;2023-04-08T04:03:47;99372.63;;;8.81;51.76
16331;BME280;8275;48.206;16.340;2023-04-08T04:06:16;99374.28;;;8.82;51.88
16331;BME280;8275;48.206;16.340;2023-04-08T04:08:46;99375.38;;;8.81;52.13
16331;BME280;8275;48.206;16.340;2023-04-08T04:11:16;99377.84;;;8.83;52.05
16331;BME280;8275;48.206;16.340;2023-04-08T04:13:44;99382.47;;;8.82;52.12
16331;BME280;8275;48.206;16.340;2023-04-08T04:16:13;99382.47;;;8.82;52.13
16331;BME280;8275;48.206;16.340;2023-04-08T04:18:41;99385.19;;;8.82;52.03
16331;BME280;8275;48.206;16.340;2023-04-08T04:21:10;99384.13;;;8.83;52.35
16331;BME280;8275;48.206;16.340;2023-04-08T04:23:39;99386.63;;;8.85;52.31
16331;BME280;8275;48.206;16.340;2023-04-08T04:26:10;99385.31;;;8.87;52.18
16331;BME280;8275;48.206;16.340;2023-04-08T04:28:38;99389.47;;;8.90;52.12
16331;BME280;8275;48.206;16.340;2023-04-08T04:31:07;99388.41;;;8.91;52.04
16331;BME280;8275;48.206;16.340;2023-04-08T04:33:35;99385.16;;;8.94;52.06
16331;BME280;8275;48.206;16.340;2023-04-08T04:36:04;99395.88;;;8.95;52.10
16331;BME280;8275;48.206;16.340;2023-04-08T04:38:32;99388.25;;;8.97;52.05
16331;BME280;8275;48.206;16.340;2023-04-08T04:41:00;99389.91;;;8.98;52.08
16331;BME280;8275;48.206;16.340;2023-04-08T04:43:30;99384.78;;;9.02;51.94
16331;BME280;8275;48.206;16.340;2023-04-08T04:45:59;99390.00;;;9.03;51.90
16331;BME280;8275;48.206;16.340;2023-04-08T04:48:29;99398.78;;;9.05;51.93
16331;BME280;8275;48.206;16.340;2023-04-08T04:50:59;99395.00;;;9.06;51.84
16331;BME280;8275;48.206;16.340;2023-04-08T04:53:29;99385.69;;;9.07;51.54
16331;BME280;8275;48.206;16.340;2023-04-08T04:55:58;99393.41;;;9.10;51.70
16331;BME280;8275;48.206;16.340;2023-04-08T04:58:29;99398.16;;;9.15;51.69
16331;BME280;8275;48.206;16.340;2023-04-08T05:00:58;99395.53;;;9.20;51.73
16331;BME280;8275;48.206;16.340;2023-04-08T05:03:26;99402.16;;;9.24;51.61
16331;BME280;8275;48.206;16.340;2023-04-08T05:05:55;99399.16;;;9.26;51.69
16331;BME280;8275;48.206;16.340;2023-04-08T05:08:23;99406.88;;;9.29;51.36
16331;BME280;8275;48.206;16.340;2023-04-08T05:10:54;99403.41;;;9.33;51.47
16331;BME280;8275;48.206;16.340;2023-04-08T05:13:22;99409.00;;;9.38;51.38
16331;BME280;8275;48.206;16.340;2023-04-08T05:15:52;99418.34;;;9.42;51.44
16331;BME280;8275;48.206;16.340;2023-04-08T05:18:20;99421.44;;;9.46;51.34
16331;BME280;8275;48.206;16.340;2023-04-08T05:20:49;99422.25;;;9.46;51.64
16331;BME280;8275;48.206;16.340;2023-04-08T05:23:17;99420.59;;;9.45;51.12
16331;BME280;8275;48.206;16.340;2023-04-08T05:25:46;99430.72;;;9.45;51.15
16331;BME280;8275;48.206;16.340;2023-04-08T05:28:14;99427.38;;;9.43;51.22
16331;BME280;8275;48.206;16.340;2023-04-08T05:30:47;99428.72;;;9.40;51.11
16331;BME280;8275;48.206;16.340;2023-04-08T05:33:18;99438.06;;;9.44;51.16
16331;BME280;8275;48.206;16.340;2023-04-08T05:35:46;99434.84;;;9.47;51.09
16331;BME280;8275;48.206;16.340;2023-04-08T05:38:14;99437.34;;;9.49;51.00
16331;BME280;8275;48.206;16.340;2023-04-08T05:40:43;99446.38;;;9.49;50.71
16331;BME280;8275;48.206;16.340;2023-04-08T05:43:11;99443.41;;;9.51;50.66
16331;BME280;8275;48.206;16.340;2023-04-08T05:45:40;99445.06;;;9.52;50.82
16331;BME280;8275;48.206;16.340;2023-04-08T05:48:08;99454.69;;;9.54;50.75
16331;BME280;8275;48.206;16.340;2023-04-08T05:50:38;99454.19;;;9.57;50.50
16331;BME280;8275;48.206;16.340;2023-04-08T05:53:06;99454.78;;;9.59;50.54
16331;BME280;8275;48.206;16.340;2023-04-08T05:55:35;99457.50;;;9.59;50.38
16331;BME280;8275;48.206;16.340;2023-04-08T05:58:03;99461.09;;;9.60;50.30
16331;BME280;8275;48.206;16.340;2023-04-08T06:00:32;99455.84;;;9.58;50.29
16331;BME280;8275;48.206;16.340;2023-04-08T06:03:01;99461.31;;;9.58;50.21
16331;BME280;8275;48.206;16.340;2023-04-08T06:05:31;99465.13;;;9.57;50.05
16331;BME280;8275;48.206;16.340;2023-04-08T06:08:00;99459.66;;;9.57;49.94
16331;BME280;8275;48.206;16.340;2023-04-08T06:10:29;99463.00;;;9.59;50.20
16331;BME280;8275;48.206;16.340;2023-04-08T06:12:57;99478.31;;;9.60;49.96
16331;BME280;8275;48.206;16.340;2023-04-08T06:15:26;99469.88;;;9.62;49.75
16331;BME280;8275;48.206;16.340;2023-04-08T06:17:55;99475.56;;;9.60;49.81
16331;BME280;8275;48.206;16.340;2023-04-08T06:20:23;99467.38;;;9.60;49.63
16331;BME280;8275;48.206;16.340;2023-04-08T06:22:52;99473.09;;;9.59;49.58
16331;BME280;8275;48.206;16.340;2023-04-08T06:25:22;99474.75;;;9.60;49.80
16331;BME280;8275;48.206;16.340;2023-04-08T06:27:50;99476.41;;;9.61;49.44
16331;BME280;8275;48.206;16.340;2023-04-08T06:30:19;99474.75;;;9.60;49.35
16331;BME280;8275;48.206;16.340;2023-04-08T06:32:47;99487.81;;;9.58;49.32
16331;BME280;8275;48.206;16.340;2023-04-08T06:35:16;99485.09;;;9.58;49.36
16331;BME280;8275;48.206;16.340;2023-04-08T06:37:45;99481.28;;;9.59;49.47
16331;BME280;8275;48.206;16.340;2023-04-08T06:40:13;99491.97;;;9.60;49.44
16331;BME280;8275;48.206;16.340;2023-04-08T06:42:43;99482.13;;;9.59;49.80
16331;BME280;8275;48.206;16.340;2023-04-08T06:45:12;99497.22;;;9.62;49.61
16331;BME280;8275;48.206;16.340;2023-04-08T06:47:41;99497.56;;;9.65;49.98
16331;BME280;8275;48.206;16.340;2023-04-08T06:50:10;99491.59;;;9.68;49.88
16331;BME280;8275;48.206;16.340;2023-04-08T06:52:38;99497.66;;;9.70;49.93
16331;BME280;8275;48.206;16.340;2023-04-08T06:55:08;99502.06;;;9.71;49.94
16331;BME280;8275;48.206;16.340;2023-04-08T06:57:36;99498.50;;;9.71;49.94
16331;BME280;8275;48.206;16.340;2023-04-08T07:00:09;99495.16;;;9.69;50.18
16331;BME280;8275;48.206;16.340;2023-04-08T07:02:37;99495.41;;;9.67;50.10
16331;BME280;8275;48.206;16.340;2023-04-08T07:05:07;99494.34;;;9.68;50.29
16331;BME280;8275;48.206;16.340;2023-04-08T07:07:35;99508.34;;;9.72;50.32
16331;BME280;8275;48.206;16.340;2023-04-08T07:10:05;99509.53;;;9.76;50.35
16331;BME280;8275;48.206;16.340;2023-04-08T07:12:37;99511.28;;;9.82;50.85
16331;BME280;8275;48.206;16.340;2023-04-08T07:15:08;99509.69;;;9.86;50.77
16331;BME280;8275;48.206;16.340;2023-04-08T07:17:37;99512.28;;;9.93;50.60
16331;BME280;8275;48.206;16.340;2023-04-08T07:20:07;99517.84;;;9.98;50.96
16331;BME280;8275;48.206;16.340;2023-04-08T07:22:36;99514.63;;;10.01;50.92
16331;BME280;8275;48.206;16.340;2023-04-08T07:25:06;99520.69;;;10.03;50.53
16331;BME280;8275;48.206;16.340;2023-04-08T07:27:34;99522.09;;;10.05;50.40
16331;BME280;8275;48.206;16.340;2023-04-08T07:30:06;99524.56;;;10.07;50.25
16331;BME280;8275;48.206;16.340;2023-04-08T07:32:35;99532.31;;;10.10;50.44
16331;BME280;8275;48.206;16.340;2023-04-08T07:35:05;99528.28;;;10.12;50.46
16331;BME280;8275;48.206;16.340;2023-04-08T07:37:33;99523.38;;;10.14;50.33
16331;BME280;8275;48.206;16.340;2023-04-08T07:40:02;99533.59;;;10.19;50.16
16331;BME280;8275;48.206;16.340;2023-04-08T07:42:31;99537.25;;;10.24;50.36
16331;BME280;8275;48.206;16.340;2023-04-08T07:44:59;99542.00;;;10.29;50.44
16331;BME280;8275;48.206;16.340;2023-04-08T07:47:29;99544.78;;;10.34;50.46
16331;BME280;8275;48.206;16.340;2023-04-08T07:49:57;99541.81;;;10.35;50.12
16331;BME280;8275;48.206;16.340;2023-04-08T07:52:26;99547.88;;;10.37;49.96
16331;BME280;8275;48.206;16.340;2023-04-08T07:54:54;99551.47;;;10.38;49.75
16331;BME280;8275;48.206;16.340;2023-04-08T07:57:23;99562.41;;;10.38;49.69
16331;BME280;8275;48.206;16.340;2023-04-08T07:59:52;99560.16;;;10.35;49.38
16331;BME280;8275;48.206;16.340;2023-04-08T08:02:20;99556.59;;;10.34;49.45
16331;BME280;8275;48.206;16.340;2023-04-08T08:04:50;99559.00;;;10.31;49.10
16331;BME280;8275;48.206;16.340;2023-04-08T08:07:19;99564.97;;;10.28;49.21
16331;BME280;8275;48.206;16.340;2023-04-08T08:09:47;99560.81;;;10.25;49.27
16331;BME280;8275;48.206;16.340;2023-04-08T08:12:16;99564.03;;;10.22;49.16
16331;BME280;8275;48.206;16.340;2023-04-08T08:14:44;99566.19;;;10.20;49.12
16331;BME280;8275;48.206;16.340;2023-04-08T08:17:13;99567.28;;;10.19;48.95
16331;BME280;8275;48.206;16.340;2023-04-08T08:19:41;99563.44;;;10.20;48.77
16331;BME280;8275;48.206;16.340;2023-04-08T08:22:12;99568.44;;;10.23;49.05
16331;BME280;8275;48.206;16.340;2023-04-08T08:24:40;99571.50;;;10.27;48.91
16331;BME280;8275;48.206;16.340;2023-04-08T08:27:10;99584.22;;;10.33;48.93
16331;BME280;8275;48.206;16.340;2023-04-08T08:29:38;99580.47;;;10.39;49.25
16331;BME280;8275;48.206;16.340;2023-04-08T08:32:06;99588.31;;;10.47;49.07
16331;BME280;8275;48.206;16.340;2023-04-08T08:34:35;99589.78;;;10.54;48.87
16331;BME280;8275;48.206;16.340;2023-04-08T08:37:04;99583.66;;;10.64;48.78
16331;BME280;8275;48.206;16.340;2023-04-08T08:39:33;99588.47;;;10.74;48.92
16331;BME280;8275;48.206;16.340;2023-04-08T08:42:02;99594.63;;;10.81;48.89
16331;BME280;8275;48.206;16.340;2023-04-08T08:44:30;99591.38;;;10.84;48.68
16331;BME280;8275;48.206;16.340;2023-04-08T08:46:59;99594.44;;;10.87;48.36
16331;BME280;8275;48.206;16.340;2023-04-08T08:49:28;99596.69;;;10.90;48.24
16331;BME280;8275;48.206;16.340;2023-04-08T08:51:56;99595.34;;;10.93;48.39
16331;BME280;8275;48.206;16.340;2023-04-08T08:54:26;99598.69;;;10.95;47.78
16331;BME280;8275;48.206;16.340;2023-04-08T08:56:56;99596.78;;;10.95;48.23
16331;BME280;8275;48.206;16.340;2023-04-08T08:59:24;99606.16;;;10.99;48.17
16331;BME280;8275;48.206;16.340;2023-04-08T09:01:52;99603.72;;;11.03;47.99
16331;BME280;8275;48.206;16.340;2023-04-08T09:04:21;99608.22;;;11.09;48.27
16331;BME280;8275;48.206;16.340;2023-04-08T09:07:08;99613.22;;;11.12;47.90
16331;BME280;8275;48.206;16.340;2023-04-08T09:09:47;99620.41;;;11.18;48.00
16331;BME280;8275;48.206;16.340;2023-04-08T09:12:18;99625.97;;;11.23;48.11
16331;BME280;8275;48.206;16.340;2023-04-08T09:14:46;99627.38;;;11.25;47.95
16331;BME280;8275;48.206;16.340;2023-04-08T09:17:15;99629.88;;;11.27;47.84
16331;BME280;8275;48.206;16.340;2023-04-08T09:20:07;99629.28;;;11.25;47.42
16331;BME280;8275;48.206;16.340;2023-04-08T09:22:58;99643.50;;;11.22;47.35
16331;BME280;8275;48.206;16.340;2023-04-08T09:25:28;99653.06;;;11.19;47.39
16331;BME280;8275;48.206;16.340;2023-04-08T09:27:59;99636.28;;;11.16;47.34
16331;BME280;8275;48.206;16.340;2023-04-08T09:30:31;99648.59;;;11.13;47.38
16331;BME280;8275;48.206;16.340;2023-04-08T09:33:00;99651.59;;;11.12;47.33
16331;BME280;8275;48.206;16.340;2023-04-08T09:35:33;99653.72;;;11.10;47.25
16331;BME280;8275;48.206;16.340;2023-04-08T09:38:02;99654.34;;;11.12;47.75
16331;BME280;8275;48.206;16.340;2023-04-08T09:40:34;99655.97;;;11.13;47.84
16331;BME280;8275;48.206;16.340;2023-04-08T09:43:05;99657.69;;;11.19;47.84
16331;BME280;8275;48.206;16.340;2023-04-08T09:45:38;99659.47;;;11.25;47.57
16331;BME280;8275;48.206;16.340;2023-04-08T09:48:13;99659.03;;;11.33;47.27
16331;BME280;8275;48.206;16.340;2023-04-08T09:50:50;99657.47;;;11.37;47.58
16331;BME280;8275;48.206;16.340;2023-04-08T09:53:27;99660.03;;;11.44;47.19
16331;BME280;8275;48.206;16.340;2023-04-08T09:55:57;99661.16;;;11.48;47.39
16331;BME280;8275;48.206;16.340;2023-04-08T09:58:37;99656.25;;;11.50;47.10
16331;BME280;8275;48.206;16.340;2023-04-08T10:01:07;99652.25;;;11.57;47.14
16331;BME280;8275;48.206;16.340;2023-04-08T10:03:46;99657.56;;;11.64;47.23
16331;BME280;8275;48.206;16.340;2023-04-08T10:06:16;99660.22;;;11.75;47.25
16331;BME280;8275;48.206;16.340;2023-04-08T10:08:45;99657.59;;;11.85;47.33
16331;BME280;8275;48.206;16.340;2023-04-08T10:11:14;99662.13;;;11.96;47.02
16331;BME280;8275;48.206;16.340;2023-04-08T10:13:44;99655.69;;;12.08;46.73
16331;BME280;8275;48.206;16.340;2023-04-08T10:16:22;99656.03;;;12.16;46.97
16331;BME280;8275;48.206;16.340;2023-04-08T10:18:53;99659.41;;;12.23;46.61
16331;BME280;8275;48.206;16.340;2023-04-08T10:21:37;99657.00;;;12.27;46.16
16331;BME280;8275;48.206;16.340;2023-04-08T10:24:07;99658.06;;;12.26;45.74
16331;BME280;8275;48.206;16.340;2023-04-08T10:26:38;99661.88;;;12.20;45.63
16331;BME280;8275;48.206;16.340;2023-04-08T10:29:42;99662.84;;;12.09;45.65
16331;BME280;8275;48.206;16.340;2023-04-08T10:32:27;99668.25;;;12.04;45.67
16331;BME280;8275;48.206;16.340;2023-04-08T10:34:56;99666.78;;;11.96;45.70
16331;BME280;8275;48.206;16.340;2023-04-08T10:37:24;99664.47;;;11.88;45.72
16331;BME280;8275;48.206;16.340;2023-04-08T10:39:54;99671.00;;;11.82;45.59
16331;BME280;8275;48.206;16.340;2023-04-08T10:42:27;99667.09;;;11.78;45.96
16331;BME280;8275;48.206;16.340;2023-04-08T10:45:01;99675.00;;;11.74;45.76
16331;BME280;8275;48.206;16.340;2023-04-08T10:47:29;99676.09;;;11.73;45.64
16331;BME280;8275;48.206;16.340;2023-04-08T10:49:58;99681.81;;;11.72;46.18
16331;BME280;8275;48.206;16.340;2023-04-08T10:52:26;99682.09;;;11.70;45.76
16331;BME280;8275;48.206;16.340;2023-04-08T10:54:55;99684.84;;;11.70;45.85
16331;BME280;8275;48.206;16.340;2023-04-08T10:57:24;99685.41;;;11.72;45.76
16331;BME280;8275;48.206;16.340;2023-04-08T10:59:53;99684.06;;;11.75;45.85
16331;BME280;8275;48.206;16.340;2023-04-08T11:02:31;99695.69;;;11.82;46.21
16331;BME280;8275;48.206;16.340;2023-04-08T11:05:00;99687.53;;;11.87;45.84
16331;BME280;8275;48.206;16.340;2023-04-08T11:07:30;99687.53;;;11.87;45.51
16331;BME280;8275;48.206;16.340;2023-04-08T11:10:02;99684.22;;;11.85;45.88
16331;BME280;8275;48.206;16.340;2023-04-08T11:12:31;99694.38;;;11.84;45.93
16331;BME280;8275;48.206;16.340;2023-04-08T11:15:01;99691.88;;;11.83;45.90
16331;BME280;8275;48.206;16.340;2023-04-08T11:17:33;99689.94;;;11.83;45.77
16331;BME280;8275;48.206;16.340;2023-04-08T11:20:02;99696.03;;;11.85;45.90
16331;BME280;8275;48.206;16.340;2023-04-08T11:22:32;99693.53;;;11.84;45.64
16331;BME280;8275;48.206;16.340;2023-04-08T11:25:02;99697.59;;;11.81;45.56
16331;BME280;8275;48.206;16.340;2023-04-08T11:27:31;99697.88;;;11.80;45.96
16331;BME280;8275;48.206;16.340;2023-04-08T11:30:00;99697.59;;;11.81;45.70
16331;BME280;8275;48.206;16.340;2023-04-08T11:32:28;99696.19;;;11.79;45.52
16331;BME280;8275;48.206;16.340;2023-04-08T11:35:00;99691.81;;;11.78;45.83
16331;BME280;8275;48.206;16.340;2023-04-08T11:37:36;99698.13;;;11.78;46.08
16331;BME280;8275;48.206;16.340;2023-04-08T11:40:10;99701.69;;;11.79;45.65
16331;BME280;8275;48.206;16.340;2023-04-08T11:42:39;99697.88;;;11.80;45.81
16331;BME280;8275;48.206;16.340;2023-04-08T11:45:12;99703.09;;;11.81;45.94
16331;BME280;8275;48.206;16.340;2023-04-08T11:47:41;99701.00;;;11.88;46.02
16331;BME280;8275;48.206;16.340;2023-04-08T11:50:12;99698.91;;;11.95;45.80
16331;BME280;8275;48.206;16.340;2023-04-08T11:52:44;99708.34;;;12.05;45.72
16331;BME280;8275;48.206;16.340;2023-04-08T11:55:22;99704.84;;;12.09;45.88
16331;BME280;8275;48.206;16.340;2023-04-08T11:57:51;99698.56;;;12.14;45.38
16331;BME280;8275;48.206;16.340;2023-04-08T12:00:21;99706.63;;;12.20;45.51
16331;BME280;8275;48.206;16.340;2023-04-08T12:02:50;99708.03;;;12.23;45.51
16331;BME280;8275;48.206;16.340;2023-04-08T12:05:21;99704.22;;;12.24;45.21
16331;BME280;8275;48.206;16.340;2023-04-08T12:07:49;99701.72;;;12.22;44.99
16331;BME280;8275;48.206;16.340;2023-04-08T12:10:18;99700.31;;;12.20;45.15
16331;BME280;8275;48.206;16.340;2023-04-08T12:12:46;99708.56;;;12.20;45.23
16331;BME280;8275;48.206;16.340;2023-04-08T12:15:15;99706.94;;;12.24;45.17
16331;BME280;8275;48.206;16.340;2023-04-08T12:17:44;99699.34;;;12.31;45.27
16331;BME280;8275;48.206;16.340;2023-04-08T12:20:12;99694.22;;;12.39;45.13
16331;BME280;8275;48.206;16.340;2023-04-08T12:22:44;99692.94;;;12.47;45.20
16331;BME280;8275;48.206;16.340;2023-04-08T12:25:12;99703.44;;;12.55;44.93
16331;BME280;8275;48.206;16.340;2023-04-08T12:27:41;99700.53;;;12.61;45.10
16331;BME280;8275;48.206;16.340;2023-04-08T12:30:11;99702.22;;;12.67;44.87
16331;BME280;8275;48.206;16.340;2023-04-08T12:32:42;99703.13;;;12.73;44.73
16331;BME280;8275;48.206;16.340;2023-04-08T12:35:12;99694.91;;;12.78;44.84
16331;BME280;8275;48.206;16.340;2023-04-08T12:37:41;99701.78;;;12.81;44.54
16331;BME280;8275;48.206;16.340;2023-04-08T12:40:11;99707.56;;;12.79;44.61
16331;BME280;8275;48.206;16.340;2023-04-08T12:42:39;99705.88;;;12.78;44.38
16331;BME280;8275;48.206;16.340;2023-04-08T12:45:09;99702.84;;;12.75;44.37
16331;BME280;8275;48.206;16.340;2023-04-08T12:47:37;99702.84;;;12.75;44.49
16331;BME280;8275;48.206;16.340;2023-04-08T12:50:07;99700.41;;;12.78;44.47
16331;BME280;8275;48.206;16.340;2023-04-08T12:52:36;99704.88;;;12.84;44.74
16331;BME280;8275;48.206;16.340;2023-04-08T12:55:06;99702.19;;;12.89;44.50
16331;BME280;8275;48.206;16.340;2023-04-08T12:57:36;99700.78;;;12.92;44.28
16331;BME280;8275;48.206;16.340;2023-04-08T13:00:06;99706.34;;;12.97;44.38
16331;BME280;8275;48.206;16.340;2023-04-08T13:02:35;99703.66;;;13.02;44.43
16331;BME280;8275;48.206;16.340;2023-04-08T13:05:04;99701.25;;;13.05;44.58
16331;BME280;8275;48.206;16.340;2023-04-08T13:07:33;99703.78;;;13.12;44.72
16331;BME280;8275;48.206;16.340;2023-04-08T13:10:01;99703.28;;;13.20;44.46
16331;BME280;8275;48.206;16.340;2023-04-08T13:12:30;99709.94;;;13.29;44.33
16331;BME280;8275;48.206;16.340;2023-04-08T13:15:00;99703.66;;;13.33;44.20
16331;BME280;8275;48.206;16.340;2023-04-08T13:17:28;99713.31;;;13.36;44.01
16331;BME280;8275;48.206;16.340;2023-04-08T13:19:57;99708.91;;;13.35;43.71